Time;durP1;ratioP1;P1;durP2;ratioP2;P2;SDS_P1;SDS_P2;PMS_P1;PMS_P2;Temp;Humidity;BMP_temperature;BMP_pressure;BME280_temperature;BME280_humidity;BME280_pressure;Samples;Min_cycle;Max_cycle;Signal;HPM_P1;HPM_P2
2023/10/13 00:00:47;;;;;;;12.02;5.93;;;;;;;20.18;63.33;100127.66;4898899;29;20401;-83
2023/10/13 00:03:16;;;;;;;13.15;6.38;;;;;;;20.18;63.59;100129.47;4892597;29;20489;-83
2023/10/13 00:05:42;;;;;;;11.10;6.20;;;;;;;20.17;63.37;100133.09;4895342;29;20033;-83
2023/10/13 00:08:09;;;;;;;11.68;6.28;;;;;;;20.13;63.58;100131.47;4896160;29;20036;-83
2023/10/13 00:10:36;;;;;;;11.25;5.85;;;;;;;20.12;63.61;100129.75;4896344;29;20035;-83
2023/10/13 00:13:11;;;;;;;11.32;6.82;;;;;;;20.14;63.65;100138.59;4896436;29;20029;-83
2023/10/13 00:15:58;;;;;;;11.93;6.35;;;;;;;20.11;63.55;100128.88;4896305;29;20175;-83
2023/10/13 00:18:33;;;;;;;11.73;6.10;;;;;;;20.07;63.46;100133.50;4879103;29;20035;-83
2023/10/13 00:21:31;;;;;;;11.13;6.50;;;;;;;20.04;63.25;100128.28;4896081;29;20040;-83
2023/10/13 00:23:57;;;;;;;10.10;6.03;;;;;;;19.98;63.78;100128.59;4879041;29;20066;-83
2023/10/13 00:26:30;;;;;;;10.40;6.22;;;;;;;19.96;63.58;100134.91;4895793;29;20362;-82
2023/10/13 00:29:37;;;;;;;12.10;6.53;;;;;;;19.94;63.38;100135.00;4879106;29;20065;-82
2023/10/13 00:31:52;;;;;;;12.57;6.33;;;;;;;19.88;63.90;100138.78;4856563;29;1125849;-83
2023/10/13 00:34:32;;;;;;;10.18;6.07;;;;;;;19.88;63.56;100132.56;4915612;29;20520;-83
2023/10/13 00:39:36;;;;;;;12.02;6.82;;;;;;;19.79;63.40;100133.88;4915695;29;20102;-83
2023/10/13 00:42:09;;;;;;;9.32;5.65;;;;;;;19.74;63.76;100131.38;4915562;29;20036;-82
2023/10/13 00:44:43;;;;;;;11.53;6.57;;;;;;;19.71;63.53;100136.00;4915816;29;20084;-83
2023/10/13 00:47:10;;;;;;;12.80;6.63;;;;;;;19.66;63.62;100133.53;4915544;29;20020;-83
2023/10/13 00:49:39;;;;;;;15.30;6.93;;;;;;;19.58;63.94;100128.53;4898618;29;20211;-82
2023/10/13 00:52:10;;;;;;;14.18;6.97;;;;;;;19.49;64.12;100132.47;4915781;29;20079;-83
2023/10/13 00:54:37;;;;;;;13.60;7.65;;;;;;;19.43;64.58;100127.41;4915395;29;20400;-83
2023/10/13 00:57:26;;;;;;;11.87;7.10;;;;;;;19.40;64.57;100129.34;4915102;29;20024;-83
2023/10/13 00:59:57;;;;;;;12.60;7.03;;;;;;;19.34;64.61;100131.34;4915185;29;20028;-83
2023/10/13 01:02:41;;;;;;;14.82;7.57;;;;;;;19.29;64.74;100135.13;4915016;29;20063;-83
2023/10/13 01:05:14;;;;;;;12.18;7.47;;;;;;;19.21;64.99;100131.00;4915518;29;20039;-83
2023/10/13 01:07:39;;;;;;;10.60;6.50;;;;;;;19.19;65.19;100129.31;4915640;29;20497;-82
2023/10/13 01:10:13;;;;;;;12.60;7.00;;;;;;;19.17;65.40;100134.72;4915818;29;20027;-83
2023/10/13 01:12:38;;;;;;;12.00;7.28;;;;;;;19.16;65.42;100130.28;4915392;29;20043;-83
2023/10/13 01:15:07;;;;;;;10.07;6.43;;;;;;;19.15;65.13;100123.22;4915044;29;20032;-82
2023/10/13 01:17:33;;;;;;;11.65;6.82;;;;;;;19.17;65.38;100116.03;4897483;29;20039;-83
2023/10/13 01:19:59;;;;;;;12.17;7.00;;;;;;;19.19;65.24;100111.50;4915089;29;20053;-83
2023/10/13 01:22:27;;;;;;;13.65;6.95;;;;;;;19.21;65.00;100112.31;4897912;29;20040;-83
2023/10/13 01:25:04;;;;;;;12.88;6.68;;;;;;;19.24;65.15;100113.97;4898068;29;20040;-83
2023/10/13 01:27:29;;;;;;;11.03;6.23;;;;;;;19.22;64.82;100114.03;4914823;29;20020;-83
2023/10/13 01:30:05;;;;;;;11.80;6.70;;;;;;;19.21;64.92;100106.97;4915128;29;20028;-83
2023/10/13 01:32:31;;;;;;;10.90;6.33;;;;;;;19.20;64.88;100102.56;4906957;29;20145;-82
2023/10/13 01:35:05;;;;;;;11.35;6.43;;;;;;;19.20;64.86;100099.00;4895977;29;20112;-83
2023/10/13 01:37:30;;;;;;;11.37;6.40;;;;;;;19.16;64.87;100092.06;4895850;29;20057;-83
2023/10/13 01:39:56;;;;;;;10.73;6.30;;;;;;;19.15;64.67;100096.53;4895795;29;20108;-82
2023/10/13 01:42:24;;;;;;;12.73;6.83;;;;;;;19.12;64.67;100091.31;4895942;29;20489;-83
2023/10/13 01:44:50;;;;;;;12.98;6.63;;;;;;;19.11;64.39;100081.59;4896146;29;20493;-82
2023/10/13 01:47:16;;;;;;;10.27;6.33;;;;;;;19.11;64.36;100084.25;4895628;29;20044;-83
2023/10/13 01:49:47;;;;;;;12.48;6.63;;;;;;;19.06;64.28;100075.56;4895868;29;20270;-83
2023/10/13 01:52:16;;;;;;;11.02;6.35;;;;;;;19.01;64.43;100070.44;4878169;29;20044;-82
2023/10/13 01:54:45;;;;;;;12.05;6.53;;;;;;;18.97;64.46;100067.94;4895211;29;20037;-83
2023/10/13 01:57:14;;;;;;;12.07;6.33;;;;;;;18.91;64.48;100061.91;4910633;29;20055;-83
2023/10/13 01:59:44;;;;;;;11.05;6.60;;;;;;;18.87;64.47;100070.97;4906545;29;20027;-82
2023/10/13 02:02:12;;;;;;;10.32;6.50;;;;;;;18.85;64.20;100062.19;4894937;29;20499;-83
2023/10/13 02:04:42;;;;;;;13.60;6.60;;;;;;;18.82;64.43;100062.31;4895370;29;20036;-83
2023/10/13 02:07:08;;;;;;;12.90;7.72;;;;;;;18.79;64.53;100063.28;4895427;29;20044;-83
2023/10/13 02:09:36;;;;;;;12.33;6.63;;;;;;;18.77;64.68;100053.63;4895164;29;20109;-82
2023/10/13 02:12:02;;;;;;;11.95;7.68;;;;;;;18.77;64.74;100057.16;4895162;29;20126;-83
2023/10/13 02:14:28;;;;;;;11.48;6.30;;;;;;;18.75;64.94;100050.16;4895257;29;20111;-83
2023/10/13 02:17:11;;;;;;;12.13;7.40;;;;;;;18.74;64.86;100043.09;4895225;29;20076;-82
2023/10/13 02:19:39;;;;;;;13.25;7.72;;;;;;;18.73;65.32;100038.69;4895068;29;20060;-83
2023/10/13 02:22:08;;;;;;;15.55;8.27;;;;;;;18.76;65.37;100043.91;4894841;29;20040;-83
2023/10/13 02:24:34;;;;;;;15.80;8.93;;;;;;;18.75;65.97;100040.34;4895018;29;20032;-83
2023/10/13 02:27:10;;;;;;;14.85;9.25;;;;;;;18.77;66.29;100037.63;4894550;29;20509;-83
2023/10/13 02:29:39;;;;;;;13.00;8.10;;;;;;;18.79;66.00;100039.28;4877519;29;20037;-83
2023/10/13 02:32:08;;;;;;;17.07;8.73;;;;;;;18.82;66.57;100040.13;4898545;29;20055;-83
2023/10/13 02:34:43;;;;;;;15.77;9.57;;;;;;;18.77;67.11;100033.16;4913821;29;20047;-82
2023/10/13 02:37:09;;;;;;;17.60;9.93;;;;;;;18.77;67.49;100026.97;4912651;29;20060;-83
2023/10/13 02:39:36;;;;;;;19.40;10.10;;;;;;;18.80;67.53;100026.81;4913796;29;20036;-83
2023/10/13 02:42:06;;;;;;;17.60;10.63;;;;;;;18.84;67.61;100027.56;4913505;29;20032;-83
2023/10/13 02:44:36;;;;;;;16.07;9.40;;;;;;;18.87;67.70;100030.09;4913399;29;20055;-83
2023/10/13 02:47:05;;;;;;;22.00;11.10;;;;;;;18.85;67.76;100021.31;4907297;29;20397;-82
2023/10/13 02:49:33;;;;;;;18.25;11.13;;;;;;;18.85;68.04;100024.81;4913015;29;20123;-83
2023/10/13 02:52:04;;;;;;;17.17;11.60;;;;;;;18.85;68.46;100019.50;4913398;29;20035;-83
2023/10/13 02:54:31;;;;;;;17.17;11.05;;;;;;;18.79;69.70;100027.75;4913468;29;20035;-83
2023/10/13 02:57:04;;;;;;;18.97;11.67;;;;;;;18.75;69.96;100019.00;4927018;29;20024;-83
2023/10/13 02:59:40;;;;;;;18.13;11.05;;;;;;;18.76;69.81;100018.06;4928731;29;20518;-83
2023/10/13 03:02:17;;;;;;;19.58;13.05;;;;;;;18.71;71.15;100014.75;4932052;29;20067;-82
2023/10/13 03:04:48;;;;;;;21.38;12.88;;;;;;;18.70;71.77;100009.50;4917058;29;20028;-83
2023/10/13 03:07:22;;;;;;;19.33;11.77;;;;;;;18.73;71.04;100009.34;4896099;29;20481;-83
2023/10/13 03:09:51;;;;;;;20.07;11.67;;;;;;;18.73;70.66;99999.53;4913273;29;20560;-83
2023/10/13 03:12:21;;;;;;;21.85;11.35;;;;;;;18.72;71.25;99999.63;4913244;29;20115;-83
2023/10/13 03:15:12;;;;;;;21.70;13.43;;;;;;;18.70;71.71;100001.50;4913197;29;20036;-83
2023/10/13 03:17:40;;;;;;;21.35;11.52;;;;;;;18.70;71.65;99998.81;4912997;29;20031;-83
2023/10/13 03:20:07;;;;;;;23.73;13.63;;;;;;;18.67;72.73;99997.13;4913094;29;20027;-83
2023/10/13 03:22:33;;;;;;;20.63;12.43;;;;;;;18.69;71.63;99991.72;4913061;29;20096;-83
2023/10/13 03:25:06;;;;;;;20.27;12.93;;;;;;;18.71;71.83;99989.88;4913213;29;20032;-83
2023/10/13 03:30:16;;;;;;;19.63;12.03;;;;;;;18.68;71.79;99989.97;4913016;29;20193;-82
2023/10/13 03:32:53;;;;;;;20.20;12.70;;;;;;;18.69;72.47;99994.38;4914032;29;20052;-82
2023/10/13 03:35:24;;;;;;;18.80;12.50;;;;;;;18.65;72.70;99991.84;4915376;29;20028;-83
2023/10/13 03:37:54;;;;;;;19.13;12.00;;;;;;;18.70;72.13;99993.50;4913068;29;20381;-83
2023/10/13 03:45:24;;;;;;;23.23;12.48;;;;;;;18.71;72.37;99982.72;4917262;29;20135;-83
2023/10/13 03:47:51;;;;;;;22.15;12.80;;;;;;;18.73;72.70;99988.03;4899384;29;20189;-84
2023/10/13 03:50:29;;;;;;;22.23;12.90;;;;;;;18.75;72.70;99983.47;4916978;29;20432;-84
2023/10/13 03:52:57;;;;;;;21.63;14.38;;;;;;;18.71;73.33;99984.56;4916780;29;20397;-84
2023/10/13 03:55:26;;;;;;;23.88;14.40;;;;;;;18.73;73.04;99982.69;4917738;29;20028;-84
2023/10/13 03:57:52;;;;;;;25.35;14.65;;;;;;;18.73;73.21;99977.34;4935497;29;20098;-84
2023/10/13 04:00:27;;;;;;;25.00;15.63;;;;;;;18.72;73.91;99980.94;4922839;29;20065;-84
2023/10/13 04:03:16;;;;;;;23.35;13.32;;;;;;;18.72;73.25;99979.13;4915954;29;20024;-85
2023/10/13 04:06:00;;;;;;;22.23;14.30;;;;;;;18.70;73.81;99977.47;4916635;29;20511;-84
2023/10/13 04:29:46;;;;;;;22.25;13.25;;;;;;;18.76;73.44;99962.06;4916251;29;20132;-83
2023/10/13 04:32:28;;;;;;;22.40;13.70;;;;;;;18.76;73.37;99972.72;4916085;29;20052;-83
2023/10/13 04:35:10;;;;;;;24.02;13.70;;;;;;;18.76;73.75;99962.06;4916274;29;20035;-85
2023/10/13 04:40:24;;;;;;;27.50;14.90;;;;;;;18.79;73.56;99966.41;4896976;29;20056;-84
2023/10/13 04:42:53;;;;;;;26.58;14.13;;;;;;;18.75;74.12;99975.47;4913035;29;20040;-85
2023/10/13 04:48:27;;;;;;;22.67;13.45;;;;;;;18.77;74.01;99970.94;4915774;29;20343;-83
2023/10/13 04:51:23;;;;;;;26.50;14.40;;;;;;;18.75;74.45;99973.66;4915686;29;20535;-83
2023/10/13 04:59:35;;;;;;;25.85;14.23;;;;;;;18.76;74.31;99990.56;4931052;29;20516;-82
2023/10/13 05:51:43;;;;;;;22.00;12.65;;;;;;;18.91;75.29;99960.53;4896230;29;20044;-84
2023/10/13 06:30:04;;;;;;;21.50;13.10;;;;;;;19.15;76.29;99973.75;4914269;29;20067;-85
2023/10/13 06:32:30;;;;;;;20.98;11.93;;;;;;;19.20;75.97;99969.09;4913178;29;20040;-87
2023/10/13 06:35:44;;;;;;;20.63;13.43;;;;;;;19.22;76.49;99964.56;4907065;29;20037;-85
2023/10/13 06:37:45;;;;;;;20.30;12.55;;;;;;;19.26;75.90;99975.94;4889734;29;20063;-85
2023/10/13 06:40:33;;;;;;;19.73;11.83;;;;;;;19.31;75.60;99975.75;4893878;29;20131;-85
2023/10/13 06:43:11;;;;;;;18.75;11.80;;;;;;;19.34;75.55;99973.81;4912503;29;20048;-85
2023/10/13 06:45:37;;;;;;;24.00;13.10;;;;;;;19.36;75.48;99973.72;4912550;29;20024;-85
2023/10/13 06:48:03;;;;;;;20.15;12.35;;;;;;;19.41;75.63;99977.06;4913283;29;20027;-85
2023/10/13 06:50:29;;;;;;;22.52;13.18;;;;;;;19.43;76.21;99977.88;4912656;29;20036;-85
2023/10/13 06:52:54;;;;;;;20.30;13.93;;;;;;;19.47;76.37;99978.56;4912835;29;20024;-86
2023/10/13 06:55:27;;;;;;;20.70;12.43;;;;;;;19.51;76.54;99980.16;4913245;29;20047;-85
2023/10/13 06:57:59;;;;;;;23.45;13.50;;;;;;;19.58;76.15;99980.75;4920112;29;20155;-84
2023/10/13 07:03:05;;;;;;;21.33;13.20;;;;;;;19.68;75.79;99984.75;4914874;29;20039;-87
2023/10/13 07:05:32;;;;;;;19.92;13.48;;;;;;;19.73;75.73;99981.84;4931777;29;20095;-86
2023/10/13 07:07:59;;;;;;;20.53;12.70;;;;;;;19.80;76.03;99978.81;4917934;29;20043;-85
2023/10/13 07:10:29;;;;;;;24.38;14.32;;;;;;;19.86;75.93;99987.47;4911487;29;20186;-85
2023/10/13 07:12:59;;;;;;;24.17;12.82;;;;;;;19.91;76.01;99989.03;4912543;29;20033;-86
2023/10/13 07:15:27;;;;;;;18.73;12.60;;;;;;;19.97;75.74;99987.88;4913412;29;20028;-86
2023/10/13 07:17:59;;;;;;;23.08;13.27;;;;;;;19.99;75.99;99980.66;4912752;29;20028;-86
2023/10/13 07:20:34;;;;;;;23.00;13.37;;;;;;;20.08;75.57;99982.00;4913203;29;20024;-86
2023/10/13 07:23:11;;;;;;;19.27;13.25;;;;;;;20.23;75.51;99983.06;4912067;29;20118;-86
2023/10/13 07:25:38;;;;;;;20.35;12.57;;;;;;;20.37;75.20;99985.91;4895636;29;20179;-87
2023/10/13 07:28:04;;;;;;;21.00;13.80;;;;;;;20.47;74.78;99983.66;4908465;29;20020;-87
2023/10/13 07:30:39;;;;;;;19.20;12.30;;;;;;;20.57;74.37;99984.06;4912825;29;20039;-86
2023/10/13 07:33:05;;;;;;;22.20;12.80;;;;;;;20.56;74.65;99984.16;4907170;29;20035;-87
2023/10/13 07:35:35;;;;;;;21.52;12.88;;;;;;;20.63;74.79;99998.94;4912089;29;20024;-86
2023/10/13 07:38:01;;;;;;;18.67;11.80;;;;;;;20.71;74.30;99995.88;4912411;29;20028;-87
2023/10/13 07:43:00;;;;;;;19.53;11.77;;;;;;;20.85;73.53;100003.25;4910317;29;20048;-87
2023/10/13 07:45:38;;;;;;;21.35;12.52;;;;;;;20.94;73.51;99998.28;4911808;29;20020;-86
2023/10/13 07:48:12;;;;;;;18.67;12.35;;;;;;;21.02;72.87;99997.88;4912167;29;20036;-87
2023/10/13 07:50:39;;;;;;;18.92;11.52;;;;;;;21.13;72.97;100001.81;4912398;29;20036;-86
2023/10/13 07:53:22;;;;;;;17.83;11.97;;;;;;;21.16;72.55;100005.19;4912311;29;20032;-87
2023/10/13 07:55:54;;;;;;;19.23;11.13;;;;;;;21.22;72.43;100007.53;4916580;29;20062;-86
2023/10/13 07:58:24;;;;;;;19.60;11.82;;;;;;;21.22;72.23;100004.88;4913132;29;20678;-87
2023/10/13 08:00:55;;;;;;;17.90;12.20;;;;;;;21.31;72.09;99998.16;4928910;29;20649;-86
2023/10/13 08:03:35;;;;;;;19.48;13.55;;;;;;;21.54;71.79;100003.22;4894526;29;20040;-86
2023/10/13 08:06:18;;;;;;;16.77;11.37;;;;;;;21.69;70.96;99999.75;4911941;29;20024;-87
2023/10/13 08:08:49;;;;;;;18.80;11.05;;;;;;;21.85;70.92;100004.25;4904844;29;20032;-86
2023/10/13 08:11:25;;;;;;;16.80;10.25;;;;;;;22.01;70.50;100007.78;4911920;29;20032;-86
2023/10/13 08:14:11;;;;;;;18.90;10.55;;;;;;;22.18;69.90;100008.66;4895101;29;20113;-86
2023/10/13 08:19:49;;;;;;;16.20;10.93;;;;;;;22.40;69.01;100002.91;4895423;29;20048;-87
2023/10/13 08:45:53;;;;;;;13.97;8.13;;;;;;;23.31;65.68;99977.06;4915168;29;20040;-86
2023/10/13 08:58:59;;;;;;;16.27;9.70;;;;;;;23.47;64.08;99976.97;4918362;29;20036;-87
2023/10/13 09:01:13;;;;;;;17.85;8.98;;;;;;;23.58;63.47;99968.22;4895939;29;20064;-87
2023/10/13 09:03:43;;;;;;;15.30;9.02;;;;;;;23.63;63.58;99971.47;4896813;29;20040;-88
2023/10/13 09:06:19;;;;;;;14.35;8.77;;;;;;;23.64;62.81;99968.69;4915100;29;20682;-87
2023/10/13 09:11:37;;;;;;;13.70;8.03;;;;;;;23.80;62.72;99970.38;4915098;29;20416;-87
2023/10/13 09:14:03;;;;;;;13.63;8.13;;;;;;;23.94;62.38;99972.19;4895992;29;20075;-86
2023/10/13 09:19:06;;;;;;;13.23;7.72;;;;;;;24.20;62.25;99981.28;4896734;29;20489;-87
2023/10/13 09:24:27;;;;;;;18.13;7.82;;;;;;;24.39;61.29;99968.41;4914968;29;20420;-87
2023/10/13 09:26:55;;;;;;;15.02;7.88;;;;;;;24.45;60.35;99957.22;4914340;29;20032;-87
2023/10/13 09:29:22;;;;;;;15.87;7.73;;;;;;;24.47;59.99;99971.44;4914734;29;20087;-87
2023/10/13 09:32:00;;;;;;;15.48;7.65;;;;;;;24.46;60.08;99973.28;4914456;29;20389;-86
2023/10/13 09:34:29;;;;;;;12.05;7.85;;;;;;;24.37;59.98;99961.31;4913533;29;20743;-87
2023/10/13 09:36:58;;;;;;;12.45;7.40;;;;;;;24.39;60.02;99957.66;4913197;29;20029;-87
2023/10/13 09:39:40;;;;;;;15.40;7.60;;;;;;;24.49;60.18;99964.16;4914118;29;20024;-87
2023/10/13 09:42:10;;;;;;;12.70;8.30;;;;;;;24.61;59.49;99968.69;4913696;29;20046;-87
2023/10/13 09:44:37;;;;;;;17.42;8.20;;;;;;;24.64;58.92;99963.09;4913910;29;20036;-88
2023/10/13 09:47:17;;;;;;;14.80;8.13;;;;;;;24.79;59.15;99965.75;4913165;29;20576;-87
2023/10/13 09:49:48;;;;;;;15.48;7.82;;;;;;;25.00;58.13;99967.94;4909725;29;20448;-88
2023/10/13 09:52:20;;;;;;;12.60;7.43;;;;;;;25.15;57.42;99966.84;4910731;29;20032;-88
2023/10/13 09:55:01;;;;;;;14.13;7.13;;;;;;;25.30;57.14;99964.91;4898517;29;20043;-86
2023/10/13 09:57:34;;;;;;;14.93;8.35;;;;;;;25.41;57.10;99950.66;4917395;29;20036;-88
2023/10/13 10:06:38;;;;;;;17.83;8.80;;;;;;;25.43;55.86;99959.50;4912364;29;20035;-87
2023/10/13 10:08:50;;;;;;;15.87;8.00;;;;;;;25.54;55.52;99939.88;4914288;29;20044;-91
2023/10/13 10:11:16;;;;;;;16.17;7.85;;;;;;;25.59;55.89;99942.25;4913597;29;20155;-90
2023/10/13 10:13:57;;;;;;;13.57;7.10;;;;;;;25.59;55.47;99943.13;4913882;29;20040;-92
2023/10/13 10:16:46;;;;;;;15.70;7.47;;;;;;;25.55;54.90;99929.97;4913774;29;20038;-88
2023/10/13 10:19:12;;;;;;;13.07;7.28;;;;;;;25.67;54.65;99930.91;4913782;29;20039;-88
2023/10/13 10:21:41;;;;;;;11.27;6.93;;;;;;;25.69;54.13;99943.31;4919343;29;20095;-92
2023/10/13 10:24:29;;;;;;;12.77;6.53;;;;;;;25.70;54.47;99934.25;4927314;29;20064;-88
2023/10/13 10:26:56;;;;;;;11.90;7.10;;;;;;;25.78;54.02;99948.03;4914285;29;20036;-90
2023/10/13 10:29:22;;;;;;;13.80;7.00;;;;;;;25.92;54.25;99952.41;4897681;29;20501;-92
2023/10/13 10:31:48;;;;;;;12.40;7.50;;;;;;;26.02;53.68;99949.91;4920178;29;20032;-88
2023/10/13 10:34:22;;;;;;;11.25;6.13;;;;;;;26.19;53.31;99945.13;4919969;29;20028;-89
2023/10/13 10:36:53;;;;;;;13.77;6.70;;;;;;;26.15;53.25;99939.06;4898425;29;20104;-89
2023/10/13 10:39:19;;;;;;;15.00;7.10;;;;;;;26.19;52.94;99939.72;4913303;29;20048;-90
2023/10/13 10:41:51;;;;;;;13.45;6.93;;;;;;;26.20;52.93;99939.59;4911364;29;20036;-90
2023/10/13 10:44:34;;;;;;;14.60;7.43;;;;;;;26.28;52.62;99933.63;4913503;29;20519;-92
2023/10/13 10:47:30;;;;;;;19.05;6.78;;;;;;;26.32;52.78;99927.00;4901134;29;20028;-91
2023/10/13 10:49:55;;;;;;;12.73;6.38;;;;;;;26.54;52.37;99938.03;4917362;29;20185;-89
2023/10/13 10:52:22;;;;;;;10.97;6.53;;;;;;;26.58;52.45;99937.66;4896915;29;20039;-90
2023/10/13 10:55:01;;;;;;;15.38;7.43;;;;;;;26.57;52.07;99944.03;4912224;29;20067;-90
2023/10/13 10:57:29;;;;;;;11.63;6.20;;;;;;;26.77;51.80;99942.50;4918734;29;20035;-88
2023/10/13 11:00:14;;;;;;;12.02;6.50;;;;;;;26.97;50.32;99933.84;4922200;29;20027;-90
2023/10/13 11:02:40;;;;;;;12.00;6.40;;;;;;;27.02;50.79;99931.63;4895675;29;20043;-87
2023/10/13 11:05:09;;;;;;;10.50;6.53;;;;;;;27.09;49.90;99938.28;4912651;29;20020;-88
2023/10/13 11:07:35;;;;;;;10.38;6.35;;;;;;;27.14;50.21;99936.09;4909910;29;20059;-87
2023/10/13 11:10:11;;;;;;;11.33;6.60;;;;;;;27.21;49.60;99929.22;4912720;29;20682;-90
2023/10/13 11:12:39;;;;;;;11.73;6.32;;;;;;;27.38;48.58;99927.00;4909837;29;20601;-88
2023/10/13 11:15:14;;;;;;;11.75;6.30;;;;;;;27.44;49.11;99931.91;4910179;29;20106;-88
2023/10/13 11:17:48;;;;;;;14.60;6.80;;;;;;;27.60;47.75;99925.25;4909393;29;20616;-87
2023/10/13 11:20:17;;;;;;;11.75;6.20;;;;;;;27.65;48.28;99923.06;4912609;29;20033;-87
2023/10/13 11:22:50;;;;;;;16.70;6.30;;;;;;;27.69;47.41;99924.53;4905240;29;20064;-84
2023/10/13 11:25:34;;;;;;;11.65;5.68;;;;;;;27.75;46.78;99913.19;4895928;29;20035;-87
2023/10/13 11:28:35;;;;;;;10.63;6.40;;;;;;;27.94;47.00;99912.53;4911566;29;20472;-86
2023/10/13 11:31:10;;;;;;;12.10;6.15;;;;;;;28.03;46.77;99902.78;4910756;29;20052;-87
2023/10/13 11:33:36;;;;;;;13.00;6.10;;;;;;;28.22;46.89;99909.41;4909583;29;20048;-86
2023/10/13 11:36:13;;;;;;;11.27;5.70;;;;;;;28.33;46.41;99906.63;4913011;29;20392;-87
2023/10/13 11:39:17;;;;;;;10.27;5.95;;;;;;;28.55;45.84;99902.09;4912894;29;20039;-86
2023/10/13 11:41:34;;;;;;;9.68;6.00;;;;;;;28.69;44.93;99891.91;4910069;29;20540;-86
2023/10/13 11:44:44;;;;;;;8.88;5.25;;;;;;;28.89;44.39;99888.38;4911054;29;20055;-86
2023/10/13 11:49:18;;;;;;;10.80;5.30;;;;;;;29.15;43.54;99885.22;4928969;29;20143;-87
2023/10/13 11:51:45;;;;;;;9.32;5.60;;;;;;;29.02;43.69;99889.97;4921647;29;20075;-86
2023/10/13 11:54:14;;;;;;;9.13;5.38;;;;;;;29.06;44.20;99886.03;4912963;29;20520;-86
2023/10/13 11:56:39;;;;;;;11.05;5.60;;;;;;;29.10;43.86;99873.91;4915258;29;20024;-87
2023/10/13 11:59:05;;;;;;;12.07;4.97;;;;;;;29.01;43.56;99874.72;4915569;29;20526;-88
2023/10/13 12:04:33;;;;;;;10.30;5.30;;;;;;;28.87;43.92;99871.38;4878489;29;20043;-88
2023/10/13 12:10:03;;;;;;;10.32;5.30;;;;;;;28.66;44.05;99855.09;4915901;29;20127;-88
2023/10/13 12:12:30;;;;;;;11.75;5.93;;;;;;;28.76;43.92;99863.28;4916015;29;20570;-87
2023/10/13 12:14:56;;;;;;;12.35;5.28;;;;;;;28.84;43.81;99859.94;4916063;29;20063;-87
2023/10/13 12:17:34;;;;;;;9.13;5.00;;;;;;;28.87;44.02;99859.66;4915148;29;20064;-87
2023/10/13 12:20:04;;;;;;;9.45;5.10;;;;;;;28.98;43.87;99854.19;4915669;29;20107;-87
2023/10/13 12:22:38;;;;;;;11.43;5.10;;;;;;;28.97;43.06;99862.44;4915410;29;20032;-87
2023/10/13 12:25:18;;;;;;;9.47;4.57;;;;;;;28.93;42.57;99857.28;4915302;29;20056;-86
2023/10/13 12:27:48;;;;;;;9.45;4.72;;;;;;;28.94;42.98;99844.59;4912682;29;20071;-86
2023/10/13 12:30:16;;;;;;;11.75;4.50;;;;;;;29.05;43.37;99835.50;4919372;29;20032;-86
2023/10/13 12:32:53;;;;;;;9.95;4.78;;;;;;;29.23;42.33;99833.00;4919113;29;20048;-87
2023/10/13 12:35:35;;;;;;;9.95;4.88;;;;;;;29.21;42.26;99841.28;4916797;29;20497;-88
2023/10/13 12:38:26;;;;;;;11.30;5.13;;;;;;;29.16;42.18;99837.25;4915397;29;20398;-85
2023/10/13 12:49:14;;;;;;;9.05;4.15;;;;;;;29.06;42.12;99818.25;4915237;29;20110;-84
2023/10/13 12:54:06;;;;;;;12.30;4.55;;;;;;;29.13;42.67;99814.00;4915504;29;20123;-85
2023/10/13 12:56:32;;;;;;;15.20;4.60;;;;;;;29.26;42.54;99810.16;4919821;29;20039;-85
2023/10/13 12:58:57;;;;;;;10.80;4.30;;;;;;;29.29;42.58;99815.31;4917189;29;20408;-85
2023/10/13 13:01:26;;;;;;;12.30;4.57;;;;;;;29.28;42.82;99811.75;4917989;29;20032;-86
2023/10/13 13:03:55;;;;;;;7.70;4.23;;;;;;;29.26;41.86;99807.44;4896724;29;20038;-86
2023/10/13 13:06:29;;;;;;;8.93;4.53;;;;;;;29.18;41.89;99811.72;4898549;29;20042;-85
2023/10/13 13:08:56;;;;;;;9.20;4.20;;;;;;;29.24;42.02;99802.19;4914918;29;20070;-86
2023/10/13 13:11:23;;;;;;;10.32;4.00;;;;;;;29.36;41.66;99802.94;4896733;29;20099;-85
2023/10/13 13:13:49;;;;;;;10.63;4.32;;;;;;;29.46;40.52;99795.69;4913675;29;20036;-85
2023/10/13 13:16:20;;;;;;;8.53;3.93;;;;;;;29.40;40.38;99800.78;4917638;29;20031;-94
2023/10/13 13:18:54;;;;;;;11.95;4.05;;;;;;;29.57;40.77;99791.16;4918299;29;20520;-88
2023/10/13 13:21:22;;;;;;;9.30;4.00;;;;;;;29.64;39.67;99784.13;4915341;29;20109;-87
2023/10/13 13:23:48;;;;;;;12.98;4.03;;;;;;;29.72;39.66;99792.41;4914686;29;20533;-88
2023/10/13 13:26:17;;;;;;;10.57;4.00;;;;;;;29.82;39.68;99783.44;4914442;29;20029;-87
2023/10/13 13:28:52;;;;;;;8.80;3.90;;;;;;;29.81;38.95;99789.88;4914674;29;20038;-86
2023/10/13 13:31:18;;;;;;;9.57;4.20;;;;;;;29.77;39.18;99781.16;4914452;29;20032;-86
2023/10/13 13:33:43;;;;;;;9.35;4.10;;;;;;;29.72;39.16;99780.72;4913797;29;20076;-86
2023/10/13 13:36:14;;;;;;;9.30;4.33;;;;;;;29.66;38.66;99784.84;4897198;29;20082;-86
2023/10/13 13:38:40;;;;;;;8.25;3.85;;;;;;;29.59;38.64;99781.00;4913953;29;20036;-85
2023/10/13 13:41:16;;;;;;;9.15;4.10;;;;;;;29.54;38.34;99784.13;4914239;29;20040;-87
2023/10/13 13:43:55;;;;;;;12.23;3.97;;;;;;;29.62;38.73;99775.28;4894491;29;20050;-86
2023/10/13 13:46:29;;;;;;;11.82;4.15;;;;;;;29.58;38.07;99784.72;4896149;29;20032;-88
2023/10/13 13:48:59;;;;;;;10.95;4.18;;;;;;;29.65;38.29;99780.44;4898027;29;20093;-86
2023/10/13 13:51:28;;;;;;;8.63;4.03;;;;;;;29.85;38.04;99788.56;4915199;29;20040;-86
2023/10/13 13:53:55;;;;;;;9.93;4.10;;;;;;;30.11;37.61;99786.13;4914595;29;20035;-84
2023/10/13 13:56:21;;;;;;;10.57;4.20;;;;;;;30.34;37.35;99788.53;4923461;29;20484;-83
2023/10/13 13:58:50;;;;;;;10.27;4.30;;;;;;;30.47;36.99;99788.22;4932969;29;20030;-83
2023/10/13 14:01:18;;;;;;;10.80;4.03;;;;;;;30.61;36.68;99784.19;4913929;29;20128;-86
2023/10/13 14:03:45;;;;;;;9.70;4.30;;;;;;;30.63;36.43;99791.19;4913214;29;20032;-85
2023/10/13 14:06:24;;;;;;;8.43;3.72;;;;;;;30.68;36.74;99789.88;4913844;29;20028;-85
2023/10/13 14:08:54;;;;;;;11.03;4.80;;;;;;;30.70;36.91;99794.19;4914129;29;20516;-84
2023/10/13 14:14:35;;;;;;;13.65;4.43;;;;;;;30.74;36.60;99808.31;4913087;29;20047;-85
2023/10/13 14:17:06;;;;;;;10.00;3.80;;;;;;;30.82;37.22;99807.56;4913843;29;20168;-85
2023/10/13 14:19:32;;;;;;;9.77;4.00;;;;;;;30.83;37.31;99810.16;4913724;29;20091;-85
2023/10/13 14:22:06;;;;;;;10.07;4.20;;;;;;;30.89;37.22;99814.16;4914276;29;20028;-85
2023/10/13 14:24:34;;;;;;;10.40;4.07;;;;;;;30.85;36.84;99805.41;4913739;29;20020;-85
2023/10/13 14:27:12;;;;;;;7.85;4.00;;;;;;;30.78;37.68;99805.16;4913907;29;20354;-86
2023/10/13 14:29:42;;;;;;;9.43;4.10;;;;;;;30.84;37.69;99809.16;4906853;29;20028;-85
2023/10/13 14:32:17;;;;;;;10.23;4.47;;;;;;;30.85;37.75;99810.84;4913853;29;20530;-85
2023/10/13 14:34:44;;;;;;;10.60;4.10;;;;;;;30.83;37.00;99803.84;4913692;29;20444;-85
2023/10/13 14:37:13;;;;;;;9.18;4.10;;;;;;;30.80;36.47;99810.47;4913947;29;20034;-85
2023/10/13 14:39:39;;;;;;;10.60;3.90;;;;;;;30.75;36.69;99812.78;4913896;29;20424;-86
2023/10/13 14:42:05;;;;;;;10.23;4.00;;;;;;;30.67;36.65;99807.19;4913787;29;20020;-86
2023/10/13 14:44:35;;;;;;;9.10;4.20;;;;;;;30.64;37.17;99811.94;4913912;29;20040;-86
2023/10/13 14:47:01;;;;;;;10.93;3.67;;;;;;;30.62;36.76;99805.78;4913589;29;20051;-86
2023/10/13 14:49:28;;;;;;;10.80;4.07;;;;;;;30.55;37.40;99801.94;4913674;29;20445;-86
2023/10/13 14:51:59;;;;;;;12.02;4.20;;;;;;;30.43;37.11;99806.69;4896533;29;20184;-86
2023/10/13 14:54:33;;;;;;;12.82;4.00;;;;;;;30.45;37.34;99810.09;4913571;29;20035;-86
2023/10/13 14:57:00;;;;;;;12.00;4.23;;;;;;;30.35;37.20;99803.81;4923000;29;20025;-86
2023/10/13 14:59:27;;;;;;;10.52;4.45;;;;;;;30.30;37.72;99798.84;4913961;29;20084;-85
2023/10/13 15:01:53;;;;;;;12.85;3.95;;;;;;;30.22;37.95;99794.13;4907534;29;20489;-86
2023/10/13 15:04:24;;;;;;;10.38;3.92;;;;;;;30.19;38.15;99786.28;4913104;29;20038;-86
2023/10/13 15:06:50;;;;;;;10.83;3.70;;;;;;;30.21;38.34;99788.84;4896675;29;20039;-87
2023/10/13 15:09:23;;;;;;;10.32;3.70;;;;;;;30.17;37.92;99782.88;4913394;29;20025;-86